Time;durP1;ratioP1;P1;durP2;ratioP2;P2;SDS_P1;SDS_P2;PMS_P1;PMS_P2;Temp;Humidity;BMP_temperature;BMP_pressure;BME280_temperature;BME280_humidity;BME280_pressure;Samples;Min_cycle;Max_cycle;Signal;HPM_P1;HPM_P2
2022/08/17 00:00:13;;;;;;;0.40;0.30;;;;;;;24.11;94.50;94966.22;5073568;28;20444;-54
2022/08/17 00:03:07;;;;;;;4.07;0.83;;;;;;;23.46;100.00;94968.94;5073894;28;20555;-54
2022/08/17 00:05:42;;;;;;;0.40;0.27;;;;;;;23.46;100.00;94965.44;5073432;28;20432;-54
2022/08/17 00:08:11;;;;;;;0.43;0.33;;;;;;;23.73;100.00;94970.56;5073614;28;20900;-54
2022/08/17 00:10:40;;;;;;;0.40;0.30;;;;;;;23.71;100.00;94962.03;5073770;28;20422;-54
2022/08/17 00:13:11;;;;;;;0.40;0.30;;;;;;;23.83;97.23;94967.25;5072898;28;20452;-54
2022/08/17 00:15:42;;;;;;;0.50;0.30;;;;;;;23.82;97.33;94963.00;5073407;28;20461;-55
2022/08/17 00:18:10;;;;;;;0.40;0.30;;;;;;;23.79;96.85;94961.03;5073144;28;20512;-55
2022/08/17 00:21:00;;;;;;;0.87;0.27;;;;;;;23.77;96.12;94968.72;5073295;28;20441;-55
2022/08/17 00:23:28;;;;;;;0.53;0.30;;;;;;;23.75;96.80;94962.09;5073584;28;20405;-55
2022/08/17 00:25:57;;;;;;;0.40;0.20;;;;;;;23.68;95.17;94968.16;5073274;28;20504;-55
2022/08/17 00:28:25;;;;;;;0.50;0.40;;;;;;;23.61;97.59;94962.63;5073100;28;21050;-55
2022/08/17 00:30:59;;;;;;;0.40;0.30;;;;;;;23.48;97.87;94969.34;5073124;28;20777;-55
2022/08/17 00:33:30;;;;;;;0.40;0.30;;;;;;;23.45;98.41;94969.31;5073131;28;20525;-55
2022/08/17 00:36:00;;;;;;;0.50;0.30;;;;;;;22.64;100.00;94873.91;5073074;28;20865;-55
2022/08/17 00:38:29;;;;;;;0.80;0.57;;;;;;;23.22;100.00;94969.22;5072987;28;20435;-55
2022/08/17 00:41:01;;;;;;;0.50;0.37;;;;;;;22.85;100.00;94968.88;5072921;28;20512;-55
2022/08/17 00:43:33;;;;;;;0.47;0.37;;;;;;;22.45;100.00;94973.75;5072863;28;20421;-55
2022/08/17 00:46:07;;;;;;;0.90;0.63;;;;;;;22.28;100.00;94977.63;5072846;28;20457;-55
2022/08/17 00:48:36;;;;;;;0.50;0.30;;;;;;;22.32;100.00;94967.69;5072686;28;20556;-55
2022/08/17 00:51:11;;;;;;;0.40;0.30;;;;;;;22.51;100.00;94978.56;5072803;28;20460;-55
2022/08/17 00:53:45;;;;;;;0.40;0.20;;;;;;;22.62;100.00;94963.38;5072737;28;20449;-55
2022/08/17 00:56:19;;;;;;;0.60;0.50;;;;;;;22.77;100.00;94973.34;5072656;28;20512;-55
2022/08/17 00:58:49;;;;;;;0.50;0.40;;;;;;;22.92;100.00;94970.94;5072635;28;20512;-55
2022/08/17 01:01:19;;;;;;;0.40;0.20;;;;;;;22.90;98.83;94974.00;5072847;28;20838;-55
2022/08/17 01:03:50;;;;;;;0.40;0.20;;;;;;;22.84;100.00;94982.75;5072484;28;20425;-55
2022/08/17 01:06:21;;;;;;;0.40;0.20;;;;;;;22.43;99.58;94909.31;5072827;28;20418;-55
2022/08/17 01:08:51;;;;;;;0.40;0.20;;;;;;;22.36;98.64;94895.66;5072451;28;20545;-55
2022/08/17 01:11:25;;;;;;;0.40;0.30;;;;;;;22.86;100.00;94978.56;5072736;28;20780;-55
2022/08/17 01:13:54;;;;;;;0.70;0.47;;;;;;;22.96;98.09;94979.91;5072628;28;20472;-55
2022/08/17 01:16:27;;;;;;;0.40;0.30;;;;;;;22.94;95.74;94984.88;5072357;28;20509;-55
2022/08/17 01:18:58;;;;;;;0.50;0.30;;;;;;;22.69;98.48;94979.72;5072188;28;20508;-55
2022/08/17 01:21:33;;;;;;;0.50;0.30;;;;;;;22.91;96.44;94989.09;5072564;28;20504;-55
2022/08/17 01:24:03;;;;;;;0.40;0.37;;;;;;;22.94;98.51;94977.56;5072443;28;20507;-55
2022/08/17 01:26:33;;;;;;;0.60;0.30;;;;;;;22.87;96.80;94982.81;5072500;28;20500;-55
2022/08/17 01:29:03;;;;;;;0.40;0.30;;;;;;;22.97;96.32;94984.19;5072112;28;20555;-55
2022/08/17 01:31:35;;;;;;;0.50;0.50;;;;;;;22.50;100.00;94981.59;5072296;28;20426;-55
2022/08/17 01:34:07;;;;;;;13.10;0.60;;;;;;;22.35;100.00;94977.78;5072115;28;20513;-55
2022/08/17 01:36:37;;;;;;;0.40;0.30;;;;;;;22.27;100.00;94991.47;5072372;28;20445;-55
2022/08/17 01:39:12;;;;;;;0.50;0.30;;;;;;;22.41;100.00;94960.19;5071994;28;20449;-55
2022/08/17 01:41:41;;;;;;;0.40;0.30;;;;;;;22.58;100.00;94986.81;5071975;28;20456;-55
2022/08/17 01:44:11;;;;;;;0.50;0.40;;;;;;;22.51;100.00;94958.84;5072190;28;20421;-55
2022/08/17 01:46:39;;;;;;;0.87;0.70;;;;;;;22.68;100.00;94980.88;5071934;28;20425;-55
2022/08/17 01:49:10;;;;;;;0.50;0.50;;;;;;;22.77;100.00;94984.16;5071788;28;20496;-55
2022/08/17 01:51:40;;;;;;;0.40;0.20;;;;;;;22.79;98.22;94983.81;5071893;28;20512;-55
2022/08/17 01:54:13;;;;;;;0.50;0.30;;;;;;;22.64;100.00;94980.00;5071887;28;20922;-55
2022/08/17 01:56:45;;;;;;;0.50;0.43;;;;;;;22.43;100.00;94981.44;5072115;28;20428;-55
2022/08/17 01:59:15;;;;;;;0.40;0.20;;;;;;;22.26;100.00;94971.03;5072052;28;20428;-55
2022/08/17 02:01:44;;;;;;;0.50;0.30;;;;;;;22.50;100.00;94981.59;5072080;28;20464;-55
2022/08/17 02:04:14;;;;;;;0.40;0.30;;;;;;;22.48;100.00;94986.56;5071770;28;20512;-55
2022/08/17 02:06:43;;;;;;;0.40;0.30;;;;;;;22.37;99.64;94959.31;5072025;28;20445;-55
2022/08/17 02:09:23;;;;;;;0.40;0.20;;;;;;;22.54;100.00;94969.72;5072007;28;20900;-55
2022/08/17 02:11:53;;;;;;;0.50;0.30;;;;;;;22.64;99.68;94979.25;5072001;28;20422;-55
2022/08/17 02:14:24;;;;;;;0.40;0.20;;;;;;;22.66;99.80;94975.06;5071482;28;20964;-55
2022/08/17 02:16:54;;;;;;;0.40;0.20;;;;;;;22.04;100.00;94986.72;5071592;28;20962;-55
2022/08/17 02:19:23;;;;;;;0.40;0.20;;;;;;;22.28;100.00;94984.94;5071345;28;20515;-55
2022/08/17 02:21:53;;;;;;;0.70;0.60;;;;;;;22.41;100.00;94981.81;5071943;28;20500;-55
2022/08/17 02:24:29;;;;;;;0.40;0.30;;;;;;;22.32;100.00;94983.09;5071256;28;20516;-55
2022/08/17 02:27:19;;;;;;;0.40;0.30;;;;;;;22.44;100.00;94989.19;5071248;28;20449;-55
2022/08/17 02:29:47;;;;;;;0.40;0.30;;;;;;;22.38;100.00;94985.19;5071200;28;21049;-55
2022/08/17 02:32:18;;;;;;;0.40;0.30;;;;;;;22.41;100.00;94989.91;5071326;28;20457;-55
2022/08/17 02:34:55;;;;;;;0.40;0.20;;;;;;;22.44;100.00;94983.78;5071740;28;21199;-55
2022/08/17 02:37:24;;;;;;;0.40;0.20;;;;;;;22.43;100.00;94986.84;5075376;28;20805;-55
2022/08/17 02:39:55;;;;;;;0.40;0.30;;;;;;;22.40;100.00;95001.03;5075120;28;20421;-55
2022/08/17 02:42:27;;;;;;;0.50;0.30;;;;;;;22.19;100.00;94978.97;5074962;28;21005;-55
2022/08/17 02:44:56;;;;;;;0.50;0.30;;;;;;;22.40;100.00;94999.13;5074922;28;20461;-55
2022/08/17 02:47:30;;;;;;;0.40;0.20;;;;;;;22.06;100.00;95007.97;5075158;28;20508;-55
2022/08/17 02:49:59;;;;;;;0.40;0.30;;;;;;;21.85;100.00;95002.00;5074754;28;20980;-55
2022/08/17 02:52:33;;;;;;;0.40;0.30;;;;;;;21.43;100.00;94904.63;5074783;28;20513;-55
2022/08/17 02:55:15;;;;;;;0.40;0.30;;;;;;;21.87;100.00;95002.47;5074716;28;20540;-55
2022/08/17 02:57:44;;;;;;;0.50;0.30;;;;;;;21.96;100.00;95003.09;5074755;28;20490;-55
2022/08/17 03:00:15;;;;;;;1.93;1.83;;;;;;;22.09;100.00;95005.34;5074704;28;20508;-55
2022/08/17 03:02:45;;;;;;;0.50;0.37;;;;;;;22.03;100.00;95001.34;5074568;28;20512;-55
2022/08/17 03:05:16;;;;;;;0.40;0.30;;;;;;;21.95;100.00;95009.63;5074884;28;20436;-55
2022/08/17 03:07:45;;;;;;;0.40;0.20;;;;;;;22.05;100.00;95001.00;5074529;28;20494;-55
2022/08/17 03:10:16;;;;;;;0.50;0.50;;;;;;;22.12;100.00;95007.34;5074251;28;20953;-55
2022/08/17 03:12:45;;;;;;;0.40;0.20;;;;;;;22.13;100.00;95017.03;5074408;28;20417;-55
2022/08/17 03:15:16;;;;;;;0.60;0.30;;;;;;;22.10;100.00;95008.84;5074628;28;20458;-55
2022/08/17 03:17:44;;;;;;;0.40;0.30;;;;;;;22.14;100.00;95020.47;5074360;28;20858;-55
2022/08/17 03:20:14;;;;;;;0.50;0.50;;;;;;;21.05;100.00;95010.25;5074337;28;20512;-55
2022/08/17 03:22:45;;;;;;;1.07;1.07;;;;;;;20.86;100.00;95026.25;5074238;28;20422;-54
2022/08/17 03:25:24;;;;;;;0.50;0.30;;;;;;;21.01;100.00;95017.47;5074384;28;20488;-55
2022/08/17 03:27:54;;;;;;;0.70;0.60;;;;;;;21.36;100.00;94996.91;5074080;28;20444;-55
2022/08/17 03:30:24;;;;;;;0.57;0.40;;;;;;;21.67;100.00;95025.06;5074009;28;20461;-56
2022/08/17 03:32:55;;;;;;;0.50;0.30;;;;;;;21.57;100.00;95028.25;5074295;28;20839;-55
2022/08/17 03:35:26;;;;;;;0.50;0.30;;;;;;;21.69;100.00;95026.28;5074022;28;20808;-56
2022/08/17 03:37:55;;;;;;;0.40;0.20;;;;;;;21.87;100.00;95026.75;5074294;28;20964;-56
2022/08/17 03:40:30;;;;;;;0.40;0.30;;;;;;;21.97;100.00;95026.25;5073877;28;20421;-56
2022/08/17 03:43:20;;;;;;;0.40;0.30;;;;;;;21.85;100.00;95029.81;5073667;28;20437;-55
2022/08/17 03:57:15;;;;;;;0.40;0.30;;;;;;;22.07;100.00;95033.81;5073578;28;20508;-51
2022/08/17 03:59:43;;;;;;;0.40;0.30;;;;;;;22.06;100.00;95038.44;5073573;28;20877;-51
2022/08/17 04:02:17;;;;;;;0.50;0.40;;;;;;;22.05;100.00;95036.09;5073809;28;20449;-52
2022/08/17 04:04:49;;;;;;;0.40;0.27;;;;;;;22.24;100.00;95043.50;5073446;28;20421;-52
2022/08/17 04:07:19;;;;;;;0.40;0.30;;;;;;;21.58;100.00;94930.81;5073435;28;20425;-52
2022/08/17 04:09:47;;;;;;;0.40;0.30;;;;;;;22.41;100.00;95041.22;5073572;28;20702;-52
2022/08/17 04:12:19;;;;;;;0.40;0.20;;;;;;;22.50;100.00;95044.50;5073344;28;20457;-52
2022/08/17 04:14:48;;;;;;;0.40;0.20;;;;;;;22.58;100.00;95050.84;5073234;28;20520;-51
2022/08/17 04:17:24;;;;;;;0.40;0.30;;;;;;;22.24;100.00;95049.66;5073554;28;20463;-52
2022/08/17 04:19:53;;;;;;;0.50;0.40;;;;;;;21.31;100.00;95048.38;5073095;28;20651;-52
2022/08/17 04:22:22;;;;;;;0.43;0.30;;;;;;;21.85;100.00;95046.00;5073053;28;20894;-52
2022/08/17 04:25:08;;;;;;;0.40;0.20;;;;;;;22.16;100.00;95049.84;5073345;28;20423;-52
2022/08/17 04:27:38;;;;;;;1.40;0.77;;;;;;;21.76;100.00;95058.81;5072894;28;20513;-52
2022/08/17 04:30:08;;;;;;;0.40;0.20;;;;;;;22.07;100.00;95052.72;5072613;28;20475;-51
2022/08/17 04:32:51;;;;;;;0.40;0.30;;;;;;;22.38;100.00;95051.91;5072999;28;20483;-50
2022/08/17 04:35:36;;;;;;;0.40;0.20;;;;;;;22.48;100.00;95054.88;5072776;28;20440;-50
2022/08/17 04:38:05;;;;;;;0.50;0.40;;;;;;;22.34;100.00;95035.63;5072760;28;20919;-50
2022/08/17 04:43:23;;;;;;;0.50;0.30;;;;;;;22.36;100.00;95049.59;5072476;28;20483;-51
2022/08/17 04:45:54;;;;;;;0.40;0.30;;;;;;;22.65;100.00;95062.63;5073027;28;20501;-51
2022/08/17 04:48:26;;;;;;;0.80;0.80;;;;;;;22.49;100.00;95061.81;5072610;28;20544;-51
2022/08/17 04:51:04;;;;;;;0.40;0.30;;;;;;;22.64;100.00;95044.84;5072427;28;20471;-50
2022/08/17 04:53:32;;;;;;;0.70;0.40;;;;;;;22.74;100.00;95059.75;5072797;28;20448;-50
2022/08/17 04:56:01;;;;;;;0.60;0.50;;;;;;;22.81;100.00;95056.41;5072528;28;20464;-50
2022/08/17 04:58:31;;;;;;;0.77;0.40;;;;;;;22.96;100.00;95052.88;5072304;28;20430;-50
2022/08/17 05:01:00;;;;;;;0.80;0.53;;;;;;;22.14;100.00;95060.97;5072611;28;20453;-50
2022/08/17 05:03:29;;;;;;;0.50;0.37;;;;;;;21.79;100.00;95068.13;5072485;28;20421;-50
2022/08/17 05:05:57;;;;;;;0.50;0.47;;;;;;;21.84;100.00;95065.97;5072093;28;20456;-51
2022/08/17 05:08:26;;;;;;;0.97;0.90;;;;;;;22.35;100.00;95058.81;5072172;28;20941;-50
2022/08/17 05:10:55;;;;;;;0.90;0.60;;;;;;;22.22;100.00;95057.31;5072234;28;20493;-50
2022/08/17 05:13:25;;;;;;;1.53;0.50;;;;;;;22.33;100.00;95054.88;5072096;28;20978;-50
2022/08/17 05:15:58;;;;;;;0.50;0.40;;;;;;;22.39;100.00;95061.59;5072562;28;20417;-51
2022/08/17 05:18:28;;;;;;;0.80;0.80;;;;;;;21.90;100.00;95061.94;5071844;28;20508;-50
2022/08/17 05:20:57;;;;;;;0.60;0.50;;;;;;;21.84;100.00;95054.41;5072382;28;20789;-51
2022/08/17 05:23:28;;;;;;;0.70;0.60;;;;;;;21.85;100.00;95083.78;5072433;28;20780;-51
2022/08/17 05:26:11;;;;;;;0.40;0.30;;;;;;;22.30;100.00;95045.56;5072059;28;20421;-51
2022/08/17 05:28:56;;;;;;;2.70;1.33;;;;;;;22.80;100.00;95077.25;5071907;28;20817;-50
2022/08/17 05:31:29;;;;;;;0.90;0.50;;;;;;;23.14;100.00;95067.56;5071828;28;20465;-50
2022/08/17 05:33:58;;;;;;;0.40;0.30;;;;;;;23.07;100.00;95053.91;5072061;28;20421;-49
2022/08/17 05:36:27;;;;;;;4.70;1.40;;;;;;;22.71;100.00;95061.22;5072111;28;20425;-51
2022/08/17 05:39:13;;;;;;;2.10;1.27;;;;;;;22.66;100.00;95072.31;5071734;28;20922;-50
2022/08/17 05:41:47;;;;;;;0.60;0.57;;;;;;;22.97;100.00;95059.88;5071735;28;20425;-50
2022/08/17 05:44:19;;;;;;;1.60;1.53;;;;;;;23.17;100.00;95056.03;5071599;28;20425;-49
2022/08/17 05:46:52;;;;;;;1.37;1.37;;;;;;;22.94;100.00;95047.84;5071775;28;20500;-49
2022/08/17 05:49:25;;;;;;;1.00;0.70;;;;;;;23.47;100.00;95058.97;5071502;28;20469;-49
2022/08/17 05:52:16;;;;;;;0.77;0.70;;;;;;;23.34;100.00;95061.03;5071653;28;20477;-49
2022/08/17 05:55:02;;;;;;;0.50;0.50;;;;;;;23.07;100.00;95054.66;5071546;28;20436;-49
2022/08/17 05:57:42;;;;;;;0.80;0.80;;;;;;;23.23;100.00;95051.91;5071315;28;20474;-49
2022/08/17 06:00:23;;;;;;;0.87;0.87;;;;;;;23.17;100.00;95056.03;5071519;28;20479;-51
2022/08/17 06:03:29;;;;;;;0.60;0.60;;;;;;;23.62;100.00;95045.38;5071467;28;20510;-50
2022/08/17 06:06:24;;;;;;;1.30;1.20;;;;;;;23.81;100.00;95060.78;5071671;28;20529;-50
2022/08/17 06:09:15;;;;;;;0.63;0.63;;;;;;;24.47;100.00;95057.69;5071739;28;20443;-50
2022/08/17 06:11:56;;;;;;;0.60;0.60;;;;;;;24.34;100.00;95057.09;5075479;28;21001;-50
2022/08/17 06:14:34;;;;;;;0.60;0.50;;;;;;;24.47;100.00;95053.06;5076034;28;20428;-50
2022/08/17 06:17:08;;;;;;;0.70;0.70;;;;;;;24.92;100.00;95056.88;5075724;28;20429;-50
2022/08/17 06:19:43;;;;;;;2.20;0.70;;;;;;;25.41;99.02;95054.78;5075563;28;20476;-50
2022/08/17 06:22:15;;;;;;;0.50;0.40;;;;;;;25.49;97.29;95048.31;5075820;28;20425;-51
2022/08/17 06:24:48;;;;;;;0.80;0.50;;;;;;;25.78;94.34;95057.56;5075726;28;20432;-51
2022/08/17 06:27:23;;;;;;;0.50;0.40;;;;;;;26.14;91.64;95039.69;5075804;28;20437;-50
2022/08/17 06:29:57;;;;;;;4.47;1.20;;;;;;;26.01;88.96;95049.28;5075397;28;20519;-51
2022/08/17 06:32:26;;;;;;;16.57;3.20;;;;;;;25.79;89.35;95012.97;5075398;28;20425;-51
2022/08/17 06:34:59;;;;;;;0.50;0.43;;;;;;;26.15;89.13;95044.78;5075144;28;20979;-51
2022/08/17 06:37:48;;;;;;;1.43;1.43;;;;;;;25.88;87.49;95046.03;5075073;28;20862;-51
2022/08/17 06:40:45;;;;;;;0.63;0.57;;;;;;;25.92;87.59;95038.72;5074953;28;20490;-51
2022/08/17 06:43:27;;;;;;;3.27;2.30;;;;;;;26.67;81.73;95030.03;5074941;28;20516;-52
2022/08/17 06:46:02;;;;;;;0.50;0.43;;;;;;;27.06;78.10;94993.00;5074895;28;20988;-52
2022/08/17 06:48:41;;;;;;;1.53;1.00;;;;;;;26.95;76.12;95037.63;5074864;28;20417;-52
2022/08/17 06:51:19;;;;;;;0.47;0.33;;;;;;;27.89;70.93;95017.41;5075103;28;20963;-53
2022/08/17 06:53:54;;;;;;;0.40;0.30;;;;;;;28.10;70.84;95024.88;5074797;28;20420;-52
2022/08/17 06:56:33;;;;;;;0.50;0.40;;;;;;;28.53;68.59;95028.38;5074586;28;20519;-52
2022/08/17 06:59:28;;;;;;;0.63;0.57;;;;;;;28.26;64.05;95022.53;5074674;28;20953;-52
2022/08/17 07:02:24;;;;;;;0.40;0.30;;;;;;;28.65;62.00;95014.38;5074535;28;20448;-52
2022/08/17 07:05:15;;;;;;;0.60;0.50;;;;;;;29.30;60.43;95027.50;5074549;28;20439;-52
2022/08/17 07:08:02;;;;;;;0.80;0.80;;;;;;;28.88;60.16;95029.16;5074563;28;20435;-52
2022/08/17 07:10:36;;;;;;;0.40;0.30;;;;;;;29.47;56.42;95026.66;5074452;28;20960;-52
2022/08/17 07:13:37;;;;;;;0.47;0.47;;;;;;;29.76;53.77;95027.28;5074458;28;20516;-52
2022/08/17 07:16:15;;;;;;;0.43;0.40;;;;;;;29.84;52.97;95028.84;5051769;28;21248;-51
2022/08/17 07:18:44;;;;;;;2.30;0.77;;;;;;;30.20;53.30;95021.97;5074071;28;20511;-55
2022/08/17 07:21:22;;;;;;;1.07;0.70;;;;;;;30.30;50.71;95025.81;5074183;28;20479;-55
2022/08/17 07:24:09;;;;;;;0.60;0.60;;;;;;;30.21;51.40;95033.69;5074568;28;20421;-54
2022/08/17 07:27:08;;;;;;;0.50;0.40;;;;;;;29.93;53.24;95026.47;5073888;28;20440;-54
2022/08/17 07:29:43;;;;;;;2.30;1.80;;;;;;;30.83;48.29;95015.22;5073962;28;20448;-54
2022/08/17 07:32:17;;;;;;;3.97;1.60;;;;;;;30.88;48.16;95017.50;5073939;28;20501;-53
2022/08/17 07:35:12;;;;;;;6.13;3.43;;;;;;;31.38;46.57;95013.06;5073882;28;20442;-53
2022/08/17 07:37:51;;;;;;;0.50;0.40;;;;;;;31.84;46.93;95017.22;5073797;28;20461;-53
2022/08/17 07:40:34;;;;;;;0.60;0.60;;;;;;;31.87;45.81;95014.44;5073695;28;20425;-54
2022/08/17 07:43:08;;;;;;;0.93;0.80;;;;;;;31.86;44.58;95009.34;5073706;28;20935;-54
2022/08/17 07:48:54;;;;;;;0.40;0.40;;;;;;;31.88;44.23;94982.28;5073569;28;20472;-54
2022/08/17 07:51:27;;;;;;;1.03;0.70;;;;;;;31.56;43.49;94965.53;5073498;28;20494;-55
2022/08/17 07:53:58;;;;;;;1.20;1.20;;;;;;;31.92;45.91;95007.69;5073571;28;20515;-55
2022/08/17 07:56:46;;;;;;;0.40;0.40;;;;;;;32.80;42.81;94998.09;5073790;28;20451;-54
2022/08/17 07:59:18;;;;;;;2.17;2.07;;;;;;;33.07;44.44;94989.78;5074060;28;20498;-54
2022/08/17 08:02:15;;;;;;;1.17;0.73;;;;;;;32.63;39.81;94997.25;5073962;28;20429;-54
2022/08/17 08:04:47;;;;;;;2.33;2.20;;;;;;;33.65;40.54;94991.03;5073655;28;20492;-54
2022/08/17 08:07:33;;;;;;;1.00;0.97;;;;;;;33.70;40.39;94991.28;5073947;28;20480;-54
2022/08/17 08:10:09;;;;;;;0.83;0.83;;;;;;;33.75;37.95;94999.00;5073604;28;20495;-54
2022/08/17 08:12:41;;;;;;;2.33;0.50;;;;;;;34.52;36.34;94992.16;5073311;28;20469;-55
2022/08/17 08:15:17;;;;;;;0.50;0.40;;;;;;;34.94;38.02;94991.88;5073569;28;20517;-54
2022/08/17 08:17:50;;;;;;;0.70;0.60;;;;;;;34.68;37.13;94989.44;5073556;28;20776;-55
2022/08/17 08:20:26;;;;;;;1.80;0.47;;;;;;;35.04;37.59;94982.59;5073649;28;20475;-55
2022/08/17 08:23:24;;;;;;;1.67;0.40;;;;;;;35.12;34.68;94974.16;5073518;28;20441;-55
2022/08/17 08:26:19;;;;;;;0.60;0.60;;;;;;;34.87;36.93;94981.06;5073188;28;20894;-55
2022/08/17 08:29:00;;;;;;;0.77;0.77;;;;;;;34.48;36.52;94973.75;5073135;28;20515;-56
2022/08/17 08:31:38;;;;;;;0.40;0.40;;;;;;;35.09;34.15;94965.53;5073060;28;20568;-55
2022/08/17 08:34:22;;;;;;;0.57;0.50;;;;;;;34.79;33.02;94965.91;5072441;28;20935;-55
2022/08/17 08:37:22;;;;;;;0.50;0.40;;;;;;;35.31;32.81;94935.41;5072950;28;20452;-55
2022/08/17 08:40:10;;;;;;;1.00;1.00;;;;;;;34.60;34.52;94966.81;5073082;28;20429;-56
2022/08/17 08:42:49;;;;;;;0.60;0.60;;;;;;;35.35;32.46;94966.38;5072978;28;20423;-56
2022/08/17 08:45:29;;;;;;;0.40;0.33;;;;;;;36.11;32.52;94955.47;5072801;28;20459;-56
2022/08/17 08:48:17;;;;;;;0.80;0.67;;;;;;;36.53;31.58;94947.84;5072824;28;20420;-55
2022/08/17 08:51:12;;;;;;;0.40;0.40;;;;;;;36.14;32.17;94951.84;5072634;28;20424;-55
2022/08/17 08:53:47;;;;;;;0.70;0.70;;;;;;;35.50;32.99;94956.47;5072896;28;20190;-56
2022/08/17 08:56:24;;;;;;;0.40;0.30;;;;;;;36.39;30.90;94951.81;5072656;28;20272;-55
2022/08/17 08:59:00;;;;;;;0.97;0.90;;;;;;;35.44;31.26;94946.44;5072579;28;20182;-55
2022/08/17 09:01:37;;;;;;;0.73;0.70;;;;;;;35.90;30.98;94947.84;5072305;28;20235;-55
2022/08/17 09:04:24;;;;;;;0.77;0.70;;;;;;;35.36;31.19;94947.88;5072763;28;20183;-54
2022/08/17 09:07:07;;;;;;;0.40;0.30;;;;;;;36.60;29.95;94942.84;5072686;28;20251;-55
2022/08/17 09:09:59;;;;;;;4.63;0.60;;;;;;;36.52;28.52;94936.03;5072649;28;20214;-54
2022/08/17 09:12:36;;;;;;;3.23;0.60;;;;;;;36.10;28.52;94929.88;5072574;28;20244;-54
2022/08/17 09:15:13;;;;;;;0.60;0.60;;;;;;;36.65;26.89;94898.09;5072405;28;20637;-54
2022/08/17 09:17:51;;;;;;;1.03;0.70;;;;;;;37.05;27.46;94927.91;5072122;28;20182;-53
2022/08/17 09:20:45;;;;;;;1.23;0.90;;;;;;;36.47;27.87;94892.41;5072563;28;20206;-53
2022/08/17 09:23:31;;;;;;;0.60;0.60;;;;;;;37.69;27.40;94923.56;5072574;28;20190;-53
2022/08/17 09:26:06;;;;;;;0.50;0.50;;;;;;;37.78;26.72;94929.91;5072142;28;20190;-54
2022/08/17 09:28:38;;;;;;;0.80;0.45;;;;;;;38.32;26.88;94932.16;5072285;28;20619;-54
2022/08/17 09:31:09;;;;;;;0.50;0.38;;;;;;;38.24;26.08;94916.25;5072376;28;20269;-53
2022/08/17 09:33:44;;;;;;;0.47;0.40;;;;;;;38.58;25.23;94935.44;5072352;28;20290;-54
2022/08/17 09:36:18;;;;;;;0.60;0.60;;;;;;;38.51;24.74;94924.63;5072366;28;20243;-55
2022/08/17 09:38:57;;;;;;;0.60;0.50;;;;;;;38.40;22.47;94925.09;5072109;28;20246;-54
2022/08/17 09:41:40;;;;;;;1.10;1.02;;;;;;;38.32;21.90;94921.09;5071837;28;20273;-54
2022/08/17 09:44:24;;;;;;;0.50;0.45;;;;;;;38.62;22.03;94919.44;5071859;28;20277;-54
2022/08/17 09:46:59;;;;;;;1.23;0.40;;;;;;;38.42;24.16;94917.09;5071844;28;20196;-54
2022/08/17 09:49:33;;;;;;;0.60;0.60;;;;;;;38.15;23.49;94925.31;5071775;28;20278;-54
2022/08/17 09:52:07;;;;;;;0.50;0.50;;;;;;;38.30;23.76;94915.25;5071606;28;20303;-54
2022/08/17 09:54:39;;;;;;;1.58;0.80;;;;;;;37.02;24.46;94923.25;5071785;28;20198;-54
2022/08/17 09:57:21;;;;;;;0.68;0.68;;;;;;;37.29;24.75;94910.41;5072065;28;20198;-55
2022/08/17 10:00:15;;;;;;;0.63;0.63;;;;;;;38.49;23.51;94916.81;5071673;28;20188;-55
2022/08/17 10:03:17;;;;;;;0.80;0.55;;;;;;;37.08;22.86;94913.97;5071579;28;20637;-54
2022/08/17 10:05:52;;;;;;;0.47;0.47;;;;;;;38.16;22.28;94907.47;5059109;28;20204;-55
2022/08/17 10:08:36;;;;;;;0.82;0.77;;;;;;;38.20;21.66;94910.09;5071850;28;20273;-52
2022/08/17 10:11:18;;;;;;;0.82;0.57;;;;;;;37.74;21.87;94867.66;5071928;28;20265;-54
2022/08/17 10:13:53;;;;;;;0.40;0.40;;;;;;;38.97;22.35;94901.31;5071598;28;20203;-54
2022/08/17 10:16:37;;;;;;;0.32;0.30;;;;;;;38.81;21.52;94904.41;5071794;28;20198;-54
2022/08/17 10:19:16;;;;;;;0.93;0.93;;;;;;;38.25;21.73;94896.44;5071520;28;20291;-54
2022/08/17 10:27:54;;;;;;;0.88;0.40;;;;;;;39.91;20.18;94889.88;5071491;28;20536;-54
2022/08/17 10:30:26;;;;;;;0.38;0.32;;;;;;;40.38;21.62;94877.31;5071537;28;20656;-54
2022/08/17 10:32:58;;;;;;;0.43;0.32;;;;;;;39.49;21.00;94875.22;5071658;28;20246;-54
2022/08/17 10:35:32;;;;;;;0.40;0.40;;;;;;;38.97;20.11;94878.34;5071433;28;20222;-54
2022/08/17 10:38:35;;;;;;;4.03;0.40;;;;;;;38.66;20.77;94879.25;5071688;28;20196;-54
2022/08/17 10:41:18;;;;;;;0.40;0.32;;;;;;;39.89;20.17;94867.38;5071288;28;20207;-54
2022/08/17 10:43:57;;;;;;;0.65;0.50;;;;;;;39.51;19.61;94869.97;5071191;28;20199;-54
2022/08/17 10:46:55;;;;;;;0.40;0.35;;;;;;;39.16;20.50;94866.78;5071195;28;20199;-54
2022/08/17 10:49:28;;;;;;;0.43;0.40;;;;;;;39.63;22.34;94868.25;5071166;28;20270;-54
2022/08/17 10:51:58;;;;;;;0.38;0.38;;;;;;;39.87;21.41;94855.22;5071245;28;20194;-54
2022/08/17 10:55:07;;;;;;;0.30;0.30;;;;;;;40.65;19.59;94856.91;5071107;28;20188;-54
2022/08/17 10:57:41;;;;;;;0.50;0.50;;;;;;;41.00;18.32;94858.63;5074524;28;20215;-55
2022/08/17 11:00:14;;;;;;;0.70;0.50;;;;;;;38.75;19.68;94856.38;5075179;28;20756;-54
2022/08/17 11:02:48;;;;;;;0.40;0.40;;;;;;;36.92;21.79;94856.09;5074905;28;20271;-55
2022/08/17 11:05:40;;;;;;;0.35;0.32;;;;;;;36.39;21.34;94854.41;5074791;28;20186;-55
2022/08/17 11:08:29;;;;;;;0.50;0.40;;;;;;;37.59;21.13;94859.16;5074412;28;20187;-53
2022/08/17 11:11:16;;;;;;;0.30;0.30;;;;;;;39.03;20.08;94860.66;5074315;28;20241;-54
2022/08/17 11:13:55;;;;;;;0.35;0.30;;;;;;;38.63;22.21;94860.03;5074263;28;20249;-54
2022/08/17 11:16:44;;;;;;;0.30;0.30;;;;;;;38.42;22.74;94863.72;5074543;28;20186;-54
2022/08/17 11:19:44;;;;;;;0.30;0.20;;;;;;;37.49;23.57;94850.03;5074112;28;20711;-54
2022/08/17 11:22:33;;;;;;;0.45;0.40;;;;;;;36.77;25.08;94847.56;5074331;28;20217;-54
2022/08/17 11:25:13;;;;;;;0.40;0.30;;;;;;;36.04;25.44;94859.16;5073923;28;20222;-55
2022/08/17 11:27:45;;;;;;;0.90;0.40;;;;;;;35.36;27.12;94856.91;5074127;28;20285;-55
2022/08/17 11:30:49;;;;;;;0.30;0.30;;;;;;;35.45;28.12;94849.53;5073563;28;20222;-55
2022/08/17 11:34:01;;;;;;;0.40;0.30;;;;;;;34.85;28.84;94854.03;5072369;28;20741;-55
2022/08/17 11:36:44;;;;;;;0.50;0.40;;;;;;;34.59;25.25;94829.59;5073724;28;20214;-54
2022/08/17 11:39:25;;;;;;;0.30;0.30;;;;;;;34.88;25.99;94855.94;5073790;28;20282;-54
2022/08/17 11:41:57;;;;;;;0.30;0.20;;;;;;;34.85;27.04;94859.53;5073843;28;20427;-54
2022/08/17 11:44:41;;;;;;;0.50;0.50;;;;;;;34.38;28.65;94850.22;5074063;28;20843;-55
2022/08/17 11:53:50;;;;;;;0.63;0.50;;;;;;;35.68;26.63;94845.69;5073560;28;20566;-54
2022/08/17 11:56:42;;;;;;;0.60;0.50;;;;;;;37.18;24.97;94840.16;5062500;28;20436;-54
2022/08/17 11:59:47;;;;;;;0.40;0.30;;;;;;;37.31;24.79;94844.41;5073590;28;20424;-55
2022/08/17 12:02:34;;;;;;;0.57;0.57;;;;;;;37.53;25.49;94838.81;5073453;28;20226;-55
2022/08/17 12:05:26;;;;;;;0.40;0.30;;;;;;;38.33;23.70;94847.84;5073777;28;20236;-54
2022/08/17 12:08:21;;;;;;;0.47;0.47;;;;;;;38.40;22.30;94838.50;5072375;28;20197;-55
2022/08/17 12:10:59;;;;;;;0.70;0.70;;;;;;;38.22;23.55;94843.97;5067313;28;20278;-55
2022/08/17 12:13:29;;;;;;;0.30;0.30;;;;;;;38.09;21.85;94833.03;5073664;28;20210;-55
2022/08/17 12:16:08;;;;;;;0.50;0.40;;;;;;;38.91;23.82;94822.81;5073256;28;20189;-55
2022/08/17 12:18:40;;;;;;;0.93;0.93;;;;;;;38.95;22.50;94822.63;5073044;28;20237;-55
2022/08/17 12:21:30;;;;;;;0.30;0.30;;;;;;;39.68;22.11;94818.44;5073114;28;20191;-55
2022/08/17 12:24:06;;;;;;;0.50;0.40;;;;;;;38.40;22.04;94819.09;5072605;28;20734;-55
2022/08/17 12:26:37;;;;;;;0.68;0.50;;;;;;;36.73;24.96;94818.53;5073314;28;20286;-55
2022/08/17 12:29:11;;;;;;;0.60;0.60;;;;;;;36.20;24.78;94823.91;5073052;28;20646;-55
2022/08/17 12:32:02;;;;;;;0.50;0.33;;;;;;;36.37;24.47;94810.69;5073022;28;20194;-55
2022/08/17 12:34:39;;;;;;;0.53;0.30;;;;;;;36.13;24.86;94813.09;5073076;28;20238;-55
2022/08/17 12:37:15;;;;;;;0.50;0.50;;;;;;;35.50;24.75;94817.88;5073017;28;20190;-55
2022/08/17 12:39:51;;;;;;;1.83;0.53;;;;;;;35.72;26.41;94814.03;5072785;28;20646;-55
2022/08/17 12:42:26;;;;;;;0.47;0.43;;;;;;;35.64;27.16;94812.75;5072894;28;20193;-55
2022/08/17 12:44:58;;;;;;;0.70;0.60;;;;;;;35.47;27.54;94769.16;5072891;28;20222;-56